sensor_id;sensor_type;location;lat;lon;timestamp;pressure;altitude;pressure_sealevel;temperature;humidity
77381;BME280;66439;50.106;10.996;2023-05-07T00:01:02;98759.48;;;14.90;62.45
77381;BME280;66439;50.106;10.996;2023-05-07T00:03:05;98762.52;;;14.91;62.63
77381;BME280;66439;50.106;10.996;2023-05-07T00:05:16;98766.96;;;14.91;62.53
77381;BME280;66439;50.106;10.996;2023-05-07T00:07:24;98761.13;;;14.91;62.63
77381;BME280;66439;50.106;10.996;2023-05-07T00:09:28;98766.55;;;14.90;62.59
77381;BME280;66439;50.106;10.996;2023-05-07T00:11:34;98765.29;;;14.86;62.86
77381;BME280;66439;50.106;10.996;2023-05-07T00:13:39;98762.08;;;14.82;63.08
77381;BME280;66439;50.106;10.996;2023-05-07T00:15:52;98769.59;;;14.80;63.20
77381;BME280;66439;50.106;10.996;2023-05-07T00:17:55;98769.96;;;14.78;63.10
77381;BME280;66439;50.106;10.996;2023-05-07T00:20:07;98773.34;;;14.78;63.02
77381;BME280;66439;50.106;10.996;2023-05-07T00:22:31;98772.50;;;14.79;62.83
77381;BME280;66439;50.106;10.996;2023-05-07T00:24:39;98776.54;;;14.81;62.97
77381;BME280;66439;50.106;10.996;2023-05-07T00:26:56;98775.01;;;14.80;63.22
77381;BME280;66439;50.106;10.996;2023-05-07T00:29:01;98779.62;;;14.77;63.17
77381;BME280;66439;50.106;10.996;2023-05-07T00:31:05;98777.83;;;14.78;63.03
77381;BME280;66439;50.106;10.996;2023-05-07T00:33:09;98784.03;;;14.81;63.21
77381;BME280;66439;50.106;10.996;2023-05-07T00:35:13;98782.95;;;14.82;63.14
77381;BME280;66439;50.106;10.996;2023-05-07T00:37:20;98783.70;;;14.83;63.07
77381;BME280;66439;50.106;10.996;2023-05-07T00:39:23;98784.72;;;14.84;63.30
77381;BME280;66439;50.106;10.996;2023-05-07T00:41:31;98785.70;;;14.84;63.30
77381;BME280;66439;50.106;10.996;2023-05-07T00:43:34;98784.80;;;14.84;63.11
77381;BME280;66439;50.106;10.996;2023-05-07T00:45:41;98791.48;;;14.85;63.21
77381;BME280;66439;50.106;10.996;2023-05-07T00:48:07;98789.50;;;14.84;63.28
77381;BME280;66439;50.106;10.996;2023-05-07T00:50:10;98786.09;;;14.83;63.38
77381;BME280;66439;50.106;10.996;2023-05-07T00:52:19;98783.54;;;14.81;63.15
77381;BME280;66439;50.106;10.996;2023-05-07T00:54:22;98779.75;;;14.79;63.33
77381;BME280;66439;50.106;10.996;2023-05-07T00:56:28;98775.06;;;14.77;63.72
77381;BME280;66439;50.106;10.996;2023-05-07T00:58:33;98772.06;;;14.75;63.59
77381;BME280;66439;50.106;10.996;2023-05-07T01:00:40;98771.90;;;14.71;63.68
77381;BME280;66439;50.106;10.996;2023-05-07T01:02:46;98771.05;;;14.65;64.03
77381;BME280;66439;50.106;10.996;2023-05-07T01:04:52;98770.22;;;14.62;63.97
77381;BME280;66439;50.106;10.996;2023-05-07T01:06:57;98768.63;;;14.60;64.14
77381;BME280;66439;50.106;10.996;2023-05-07T01:09:22;98770.30;;;14.61;64.02
77381;BME280;66439;50.106;10.996;2023-05-07T01:11:44;98770.52;;;14.61;64.06
77381;BME280;66439;50.106;10.996;2023-05-07T01:13:50;98769.06;;;14.61;64.03
77381;BME280;66439;50.106;10.996;2023-05-07T01:15:55;98767.76;;;14.57;64.25
77381;BME280;66439;50.106;10.996;2023-05-07T01:18:00;98765.37;;;14.54;64.19
77381;BME280;66439;50.106;10.996;2023-05-07T01:20:08;98766.16;;;14.51;64.48
77381;BME280;66439;50.106;10.996;2023-05-07T01:22:26;98767.33;;;14.47;64.58
77381;BME280;66439;50.106;10.996;2023-05-07T01:24:34;98768.36;;;14.46;64.47
77381;BME280;66439;50.106;10.996;2023-05-07T01:26:42;98767.94;;;14.45;64.56
77381;BME280;66439;50.106;10.996;2023-05-07T01:28:46;98769.21;;;14.43;64.74
77381;BME280;66439;50.106;10.996;2023-05-07T01:30:53;98766.05;;;14.41;64.61
77381;BME280;66439;50.106;10.996;2023-05-07T01:33:13;98764.00;;;14.36;64.88
77381;BME280;66439;50.106;10.996;2023-05-07T01:35:20;98765.84;;;14.35;64.75
77381;BME280;66439;50.106;10.996;2023-05-07T01:37:30;98763.50;;;14.33;65.02
77381;BME280;66439;50.106;10.996;2023-05-07T01:39:38;98760.77;;;14.31;65.00
77381;BME280;66439;50.106;10.996;2023-05-07T01:41:46;98764.03;;;14.31;64.76
77381;BME280;66439;50.106;10.996;2023-05-07T01:43:52;98760.30;;;14.33;64.79
77381;BME280;66439;50.106;10.996;2023-05-07T01:46:02;98761.21;;;14.36;64.93
77381;BME280;66439;50.106;10.996;2023-05-07T01:48:09;98762.60;;;14.36;64.99
77381;BME280;66439;50.106;10.996;2023-05-07T01:50:15;98765.05;;;14.35;65.00
77381;BME280;66439;50.106;10.996;2023-05-07T01:52:22;98766.21;;;14.34;64.93
77381;BME280;66439;50.106;10.996;2023-05-07T01:54:28;98769.17;;;14.34;64.87
77381;BME280;66439;50.106;10.996;2023-05-07T01:56:32;98763.91;;;14.34;64.84
77381;BME280;66439;50.106;10.996;2023-05-07T01:58:38;98762.47;;;14.34;64.79
77381;BME280;66439;50.106;10.996;2023-05-07T02:00:43;98764.86;;;14.35;64.77
77381;BME280;66439;50.106;10.996;2023-05-07T02:02:46;98756.66;;;14.35;64.73
77381;BME280;66439;50.106;10.996;2023-05-07T02:05:13;98750.50;;;14.32;65.00
77381;BME280;66439;50.106;10.996;2023-05-07T02:07:19;98750.14;;;14.28;65.07
77381;BME280;66439;50.106;10.996;2023-05-07T02:09:27;98747.20;;;14.23;65.01
77381;BME280;66439;50.106;10.996;2023-05-07T02:11:32;98746.30;;;14.18;65.28
77381;BME280;66439;50.106;10.996;2023-05-07T02:13:37;98745.39;;;14.14;65.24
77381;BME280;66439;50.106;10.996;2023-05-07T02:15:42;98751.73;;;14.10;65.26
77381;BME280;66439;50.106;10.996;2023-05-07T02:18:18;98755.43;;;14.12;65.27
77381;BME280;66439;50.106;10.996;2023-05-07T02:20:22;98757.94;;;14.15;65.31
77381;BME280;66439;50.106;10.996;2023-05-07T02:22:28;98762.63;;;14.15;65.25
77381;BME280;66439;50.106;10.996;2023-05-07T02:24:35;98764.56;;;14.14;65.06
77381;BME280;66439;50.106;10.996;2023-05-07T02:26:45;98765.23;;;14.14;65.32
77381;BME280;66439;50.106;10.996;2023-05-07T02:28:50;98766.09;;;14.14;65.13
77381;BME280;66439;50.106;10.996;2023-05-07T02:30:58;98766.48;;;14.11;65.34
77381;BME280;66439;50.106;10.996;2023-05-07T02:33:06;98767.31;;;14.09;65.22
77381;BME280;66439;50.106;10.996;2023-05-07T02:35:12;98769.29;;;14.06;65.22
77381;BME280;66439;50.106;10.996;2023-05-07T02:37:16;98768.30;;;14.00;65.49
77381;BME280;66439;50.106;10.996;2023-05-07T02:39:39;98768.25;;;13.94;65.41
77381;BME280;66439;50.106;10.996;2023-05-07T02:41:45;98778.70;;;13.87;65.63
77381;BME280;66439;50.106;10.996;2023-05-07T02:43:47;98778.54;;;13.81;65.83
77381;BME280;66439;50.106;10.996;2023-05-07T02:46:21;98775.52;;;13.74;65.94
77381;BME280;66439;50.106;10.996;2023-05-07T02:48:29;98772.27;;;13.73;66.02
77381;BME280;66439;50.106;10.996;2023-05-07T02:50:41;98770.72;;;13.75;65.79
77381;BME280;66439;50.106;10.996;2023-05-07T02:52:45;98762.41;;;13.76;65.74
77381;BME280;66439;50.106;10.996;2023-05-07T02:54:51;98761.84;;;13.80;65.72
77381;BME280;66439;50.106;10.996;2023-05-07T02:56:59;98760.29;;;13.85;65.70
77381;BME280;66439;50.106;10.996;2023-05-07T02:59:06;98762.11;;;13.86;65.35
77381;BME280;66439;50.106;10.996;2023-05-07T03:01:12;98772.05;;;13.84;65.47
77381;BME280;66439;50.106;10.996;2023-05-07T03:03:35;98775.45;;;13.80;65.63
77381;BME280;66439;50.106;10.996;2023-05-07T03:05:41;98773.88;;;13.77;65.64
77381;BME280;66439;50.106;10.996;2023-05-07T03:07:45;98771.27;;;13.72;65.83
77381;BME280;66439;50.106;10.996;2023-05-07T03:10:08;98765.96;;;13.67;66.05
77381;BME280;66439;50.106;10.996;2023-05-07T03:12:32;98761.69;;;13.66;65.97
77381;BME280;66439;50.106;10.996;2023-05-07T03:14:38;98761.57;;;13.65;66.00
77381;BME280;66439;50.106;10.996;2023-05-07T03:17:05;98758.55;;;13.63;66.03
77381;BME280;66439;50.106;10.996;2023-05-07T03:19:14;98756.02;;;13.61;65.96
77381;BME280;66439;50.106;10.996;2023-05-07T03:21:24;98754.20;;;13.60;66.06
77381;BME280;66439;50.106;10.996;2023-05-07T03:23:33;98755.18;;;13.59;66.17
77381;BME280;66439;50.106;10.996;2023-05-07T03:25:39;98751.64;;;13.58;66.30
77381;BME280;66439;50.106;10.996;2023-05-07T03:27:45;98753.81;;;13.59;66.33
77381;BME280;66439;50.106;10.996;2023-05-07T03:29:54;98753.21;;;13.61;66.05
77381;BME280;66439;50.106;10.996;2023-05-07T03:32:02;98753.77;;;13.59;66.12
77381;BME280;66439;50.106;10.996;2023-05-07T03:34:10;98753.36;;;13.58;66.15
77381;BME280;66439;50.106;10.996;2023-05-07T03:36:13;98750.86;;;13.58;66.17
77381;BME280;66439;50.106;10.996;2023-05-07T03:38:17;98749.84;;;13.56;66.41
77381;BME280;66439;50.106;10.996;2023-05-07T03:40:21;98754.83;;;13.54;66.55
77381;BME280;66439;50.106;10.996;2023-05-07T03:42:28;98762.01;;;13.51;66.54
77381;BME280;66439;50.106;10.996;2023-05-07T03:44:40;98764.59;;;13.49;66.45
77381;BME280;66439;50.106;10.996;2023-05-07T03:47:18;98766.91;;;13.42;66.50
77381;BME280;66439;50.106;10.996;2023-05-07T03:49:21;98769.99;;;13.42;66.43
77381;BME280;66439;50.106;10.996;2023-05-07T03:51:25;98770.73;;;13.41;66.38
77381;BME280;66439;50.106;10.996;2023-05-07T03:53:32;98770.15;;;13.37;66.53
77381;BME280;66439;50.106;10.996;2023-05-07T03:55:37;98772.86;;;13.33;66.68
77381;BME280;66439;50.106;10.996;2023-05-07T03:57:41;98773.23;;;13.31;66.62
77381;BME280;66439;50.106;10.996;2023-05-07T03:59:46;98775.65;;;13.32;66.68
77381;BME280;66439;50.106;10.996;2023-05-07T04:01:52;98776.84;;;13.30;66.76
77381;BME280;66439;50.106;10.996;2023-05-07T04:04:01;98780.48;;;13.28;66.70
77381;BME280;66439;50.106;10.996;2023-05-07T04:06:16;98779.85;;;13.31;66.57
77381;BME280;66439;50.106;10.996;2023-05-07T04:08:25;98778.62;;;13.34;66.51
77381;BME280;66439;50.106;10.996;2023-05-07T04:10:33;98781.48;;;13.31;66.63
77381;BME280;66439;50.106;10.996;2023-05-07T04:12:46;98788.37;;;13.29;66.60
77381;BME280;66439;50.106;10.996;2023-05-07T04:15:07;98787.34;;;13.27;66.72
77381;BME280;66439;50.106;10.996;2023-05-07T04:17:19;98790.67;;;13.27;66.65
77381;BME280;66439;50.106;10.996;2023-05-07T04:19:23;98794.06;;;13.26;66.85
77381;BME280;66439;50.106;10.996;2023-05-07T04:21:31;98801.00;;;13.25;66.83
77381;BME280;66439;50.106;10.996;2023-05-07T04:23:34;98801.40;;;13.24;66.93
77381;BME280;66439;50.106;10.996;2023-05-07T04:25:39;98797.50;;;13.20;66.89
77381;BME280;66439;50.106;10.996;2023-05-07T04:27:57;98799.38;;;13.18;66.93
77381;BME280;66439;50.106;10.996;2023-05-07T04:30:03;98800.85;;;13.14;66.92
77381;BME280;66439;50.106;10.996;2023-05-07T04:32:13;98802.98;;;13.16;66.73
77381;BME280;66439;50.106;10.996;2023-05-07T04:34:16;98803.48;;;13.18;66.91
77381;BME280;66439;50.106;10.996;2023-05-07T04:36:23;98804.10;;;13.19;66.77
77381;BME280;66439;50.106;10.996;2023-05-07T04:38:42;98808.59;;;13.19;66.71
77381;BME280;66439;50.106;10.996;2023-05-07T04:40:55;98812.55;;;13.22;66.68
77381;BME280;66439;50.106;10.996;2023-05-07T04:43:04;98815.13;;;13.24;66.72
77381;BME280;66439;50.106;10.996;2023-05-07T04:45:10;98814.61;;;13.27;66.44
77381;BME280;66439;50.106;10.996;2023-05-07T04:47:15;98814.05;;;13.27;66.48
77381;BME280;66439;50.106;10.996;2023-05-07T04:49:22;98814.61;;;13.28;66.55
77381;BME280;66439;50.106;10.996;2023-05-07T04:51:26;98819.38;;;13.29;66.69
77381;BME280;66439;50.106;10.996;2023-05-07T04:53:31;98823.08;;;13.29;66.56
77381;BME280;66439;50.106;10.996;2023-05-07T04:55:35;98824.10;;;13.28;66.50
77381;BME280;66439;50.106;10.996;2023-05-07T04:57:40;98825.10;;;13.30;66.63
77381;BME280;66439;50.106;10.996;2023-05-07T04:59:47;98829.45;;;13.33;66.50
77381;BME280;66439;50.106;10.996;2023-05-07T05:01:51;98832.73;;;13.35;66.41
77381;BME280;66439;50.106;10.996;2023-05-07T05:03:56;98839.72;;;13.39;66.39
77381;BME280;66439;50.106;10.996;2023-05-07T05:06:00;98844.86;;;13.46;66.29
77381;BME280;66439;50.106;10.996;2023-05-07T05:08:08;98844.80;;;13.54;66.22
77381;BME280;66439;50.106;10.996;2023-05-07T05:10:39;98847.03;;;13.67;65.99
77381;BME280;66439;50.106;10.996;2023-05-07T05:12:56;98847.48;;;13.71;65.86
77381;BME280;66439;50.106;10.996;2023-05-07T05:15:03;98840.51;;;13.78;65.61
77381;BME280;66439;50.106;10.996;2023-05-07T05:17:50;98846.64;;;13.80;65.41
77381;BME280;66439;50.106;10.996;2023-05-07T05:19:55;98846.20;;;13.80;65.54
77381;BME280;66439;50.106;10.996;2023-05-07T05:22:00;98844.86;;;13.79;65.54
77381;BME280;66439;50.106;10.996;2023-05-07T05:24:05;98844.64;;;13.79;65.48
77381;BME280;66439;50.106;10.996;2023-05-07T05:26:09;98842.12;;;13.79;65.07
77381;BME280;66439;50.106;10.996;2023-05-07T05:28:12;98841.51;;;13.79;65.03
77381;BME280;66439;50.106;10.996;2023-05-07T05:30:15;98838.73;;;13.77;65.03
77381;BME280;66439;50.106;10.996;2023-05-07T05:32:20;98836.06;;;13.77;65.10
77381;BME280;66439;50.106;10.996;2023-05-07T05:34:25;98836.52;;;13.75;64.95
77381;BME280;66439;50.106;10.996;2023-05-07T05:36:29;98832.87;;;13.70;65.07
77381;BME280;66439;50.106;10.996;2023-05-07T05:38:36;98835.33;;;13.67;65.16
77381;BME280;66439;50.106;10.996;2023-05-07T05:40:40;98834.02;;;13.71;65.19
77381;BME280;66439;50.106;10.996;2023-05-07T05:42:46;98829.92;;;13.77;65.05
77381;BME280;66439;50.106;10.996;2023-05-07T05:44:58;98829.17;;;13.80;65.24
77381;BME280;66439;50.106;10.996;2023-05-07T05:47:05;98825.44;;;13.86;65.27
77381;BME280;66439;50.106;10.996;2023-05-07T05:49:13;98823.72;;;13.89;65.14
77381;BME280;66439;50.106;10.996;2023-05-07T05:51:17;98830.52;;;13.93;65.09
77381;BME280;66439;50.106;10.996;2023-05-07T05:53:21;98834.31;;;13.97;64.98
77381;BME280;66439;50.106;10.996;2023-05-07T05:55:25;98837.75;;;14.04;64.88
77381;BME280;66439;50.106;10.996;2023-05-07T05:57:32;98834.00;;;14.08;64.76
77381;BME280;66439;50.106;10.996;2023-05-07T05:59:35;98838.55;;;14.12;64.88
77381;BME280;66439;50.106;10.996;2023-05-07T06:01:39;98839.45;;;14.19;64.87
77381;BME280;66439;50.106;10.996;2023-05-07T06:03:47;98842.80;;;14.26;64.63
77381;BME280;66439;50.106;10.996;2023-05-07T06:05:53;98844.00;;;14.31;64.51
77381;BME280;66439;50.106;10.996;2023-05-07T06:10:52;98843.80;;;14.42;64.16
77381;BME280;66439;50.106;10.996;2023-05-07T06:13:00;98842.70;;;14.46;63.94
77381;BME280;66439;50.106;10.996;2023-05-07T06:15:07;98845.82;;;14.50;63.78
77381;BME280;66439;50.106;10.996;2023-05-07T06:17:12;98845.70;;;14.50;63.84
77381;BME280;66439;50.106;10.996;2023-05-07T06:19:16;98847.10;;;14.51;63.91
77381;BME280;66439;50.106;10.996;2023-05-07T06:21:22;98845.58;;;14.51;63.91
77381;BME280;66439;50.106;10.996;2023-05-07T06:23:27;98846.61;;;14.51;63.79
77381;BME280;66439;50.106;10.996;2023-05-07T06:25:32;98845.69;;;14.49;63.73
77381;BME280;66439;50.106;10.996;2023-05-07T06:27:38;98847.77;;;14.48;63.78
77381;BME280;66439;50.106;10.996;2023-05-07T06:29:48;98846.86;;;14.47;63.84
77381;BME280;66439;50.106;10.996;2023-05-07T06:31:53;98845.66;;;14.48;63.74
77381;BME280;66439;50.106;10.996;2023-05-07T06:34:00;98849.09;;;14.48;63.79
77381;BME280;66439;50.106;10.996;2023-05-07T06:36:11;98844.56;;;14.47;63.88
77381;BME280;66439;50.106;10.996;2023-05-07T06:38:15;98844.14;;;14.45;63.70
77381;BME280;66439;50.106;10.996;2023-05-07T06:42:42;98847.94;;;14.45;64.17
77381;BME280;66439;50.106;10.996;2023-05-07T06:45:22;98848.34;;;14.47;64.30
77381;BME280;66439;50.106;10.996;2023-05-07T06:47:42;98852.07;;;14.50;64.22
77381;BME280;66439;50.106;10.996;2023-05-07T06:49:46;98850.92;;;14.54;64.03
77381;BME280;66439;50.106;10.996;2023-05-07T06:51:52;98855.21;;;14.61;63.85
77381;BME280;66439;50.106;10.996;2023-05-07T06:53:58;98857.23;;;14.66;63.78
77381;BME280;66439;50.106;10.996;2023-05-07T06:56:03;98858.66;;;14.69;63.33
77381;BME280;66439;50.106;10.996;2023-05-07T06:58:07;98864.59;;;14.70;63.43
77381;BME280;66439;50.106;10.996;2023-05-07T07:00:19;98864.84;;;14.70;63.05
77381;BME280;66439;50.106;10.996;2023-05-07T07:02:28;98858.34;;;14.67;63.24
77381;BME280;66439;50.106;10.996;2023-05-07T07:04:34;98860.93;;;14.73;63.35
77381;BME280;66439;50.106;10.996;2023-05-07T07:06:42;98856.33;;;14.78;63.52
77381;BME280;66439;50.106;10.996;2023-05-07T07:08:48;98858.42;;;14.82;63.55
77381;BME280;66439;50.106;10.996;2023-05-07T07:10:55;98858.42;;;14.82;63.34
77381;BME280;66439;50.106;10.996;2023-05-07T07:13:01;98855.45;;;14.83;63.40
77381;BME280;66439;50.106;10.996;2023-05-07T07:15:07;98855.74;;;14.81;63.60
77381;BME280;66439;50.106;10.996;2023-05-07T07:17:14;98858.14;;;14.79;63.70
77381;BME280;66439;50.106;10.996;2023-05-07T07:19:23;98861.17;;;14.80;63.40
77381;BME280;66439;50.106;10.996;2023-05-07T07:21:29;98861.83;;;14.83;63.18
77381;BME280;66439;50.106;10.996;2023-05-07T07:23:33;98859.61;;;14.89;63.46
77381;BME280;66439;50.106;10.996;2023-05-07T07:25:38;98859.81;;;14.94;63.30
77381;BME280;66439;50.106;10.996;2023-05-07T07:27:42;98859.44;;;14.98;63.35
77381;BME280;66439;50.106;10.996;2023-05-07T07:29:47;98857.42;;;15.07;63.39
77381;BME280;66439;50.106;10.996;2023-05-07T07:31:51;98856.66;;;15.14;63.16
77381;BME280;66439;50.106;10.996;2023-05-07T07:33:59;98857.48;;;15.18;63.02
77381;BME280;66439;50.106;10.996;2023-05-07T07:36:05;98858.33;;;15.19;62.89
77381;BME280;66439;50.106;10.996;2023-05-07T07:38:12;98857.25;;;15.19;62.99
77381;BME280;66439;50.106;10.996;2023-05-07T07:40:19;98858.63;;;15.20;63.06
77381;BME280;66439;50.106;10.996;2023-05-07T07:42:26;98857.52;;;15.23;63.09
77381;BME280;66439;50.106;10.996;2023-05-07T07:44:33;98857.46;;;15.28;62.78
77381;BME280;66439;50.106;10.996;2023-05-07T07:46:45;98855.50;;;15.34;63.12
77381;BME280;66439;50.106;10.996;2023-05-07T07:48:50;98858.19;;;15.40;63.03
77381;BME280;66439;50.106;10.996;2023-05-07T07:50:56;98857.41;;;15.44;62.65
77381;BME280;66439;50.106;10.996;2023-05-07T07:53:01;98857.66;;;15.46;62.50
77381;BME280;66439;50.106;10.996;2023-05-07T07:55:11;98859.21;;;15.48;62.25
77381;BME280;66439;50.106;10.996;2023-05-07T07:57:19;98859.58;;;15.50;62.10
77381;BME280;66439;50.106;10.996;2023-05-07T07:59:27;98860.44;;;15.51;62.08
77381;BME280;66439;50.106;10.996;2023-05-07T08:01:35;98864.26;;;15.54;62.26
77381;BME280;66439;50.106;10.996;2023-05-07T08:03:41;98862.30;;;15.60;62.04
77381;BME280;66439;50.106;10.996;2023-05-07T08:05:55;98864.29;;;15.66;61.97
77381;BME280;66439;50.106;10.996;2023-05-07T08:08:03;98869.42;;;15.71;62.18
77381;BME280;66439;50.106;10.996;2023-05-07T08:10:07;98867.73;;;15.74;62.11
77381;BME280;66439;50.106;10.996;2023-05-07T08:12:16;98870.10;;;15.77;62.21
77381;BME280;66439;50.106;10.996;2023-05-07T08:14:19;98872.64;;;15.81;61.92
77381;BME280;66439;50.106;10.996;2023-05-07T08:16:26;98872.92;;;15.84;61.70
77381;BME280;66439;50.106;10.996;2023-05-07T08:18:31;98870.35;;;15.88;61.68
77381;BME280;66439;50.106;10.996;2023-05-07T08:20:38;98868.92;;;15.92;61.62
77381;BME280;66439;50.106;10.996;2023-05-07T08:22:46;98869.42;;;16.00;61.84
77381;BME280;66439;50.106;10.996;2023-05-07T08:24:51;98866.70;;;16.07;61.80
77381;BME280;66439;50.106;10.996;2023-05-07T08:26:58;98865.92;;;16.13;61.73
77381;BME280;66439;50.106;10.996;2023-05-07T08:29:03;98864.94;;;16.19;61.37
77381;BME280;66439;50.106;10.996;2023-05-07T08:31:09;98865.16;;;16.24;61.28
77381;BME280;66439;50.106;10.996;2023-05-07T08:33:16;98863.11;;;16.30;60.99
77381;BME280;66439;50.106;10.996;2023-05-07T08:35:21;98862.08;;;16.36;60.60
77381;BME280;66439;50.106;10.996;2023-05-07T08:37:26;98861.55;;;16.41;60.69
77381;BME280;66439;50.106;10.996;2023-05-07T08:39:38;98858.94;;;16.46;60.43
77381;BME280;66439;50.106;10.996;2023-05-07T08:41:55;98858.98;;;16.49;60.18
77381;BME280;66439;50.106;10.996;2023-05-07T08:44:03;98858.77;;;16.53;60.33
77381;BME280;66439;50.106;10.996;2023-05-07T08:46:11;98861.38;;;16.59;60.34
77381;BME280;66439;50.106;10.996;2023-05-07T08:48:17;98860.75;;;16.66;60.16
77381;BME280;66439;50.106;10.996;2023-05-07T08:50:31;98860.67;;;16.74;60.02
77381;BME280;66439;50.106;10.996;2023-05-07T08:52:43;98865.88;;;16.78;59.56
77381;BME280;66439;50.106;10.996;2023-05-07T08:54:59;98863.77;;;16.83;59.48
77381;BME280;66439;50.106;10.996;2023-05-07T08:57:09;98861.04;;;16.90;59.40
77381;BME280;66439;50.106;10.996;2023-05-07T08:59:13;98863.23;;;16.93;58.49
77381;BME280;66439;50.106;10.996;2023-05-07T09:01:25;98865.83;;;16.99;58.71
77381;BME280;66439;50.106;10.996;2023-05-07T09:03:31;98869.90;;;17.06;58.68
77381;BME280;66439;50.106;10.996;2023-05-07T09:05:36;98863.61;;;17.11;58.56
77381;BME280;66439;50.106;10.996;2023-05-07T09:07:41;98866.39;;;17.17;58.56
77381;BME280;66439;50.106;10.996;2023-05-07T09:10:04;98863.81;;;17.24;58.58
77381;BME280;66439;50.106;10.996;2023-05-07T09:12:11;98866.02;;;17.33;58.54
77381;BME280;66439;50.106;10.996;2023-05-07T09:14:24;98864.65;;;17.41;58.27
77381;BME280;66439;50.106;10.996;2023-05-07T09:16:35;98863.98;;;17.51;58.21
77381;BME280;66439;50.106;10.996;2023-05-07T09:18:52;98862.71;;;17.56;56.98
77381;BME280;66439;50.106;10.996;2023-05-07T09:21:00;98860.01;;;17.58;57.26
77381;BME280;66439;50.106;10.996;2023-05-07T09:23:03;98858.98;;;17.63;57.33
77381;BME280;66439;50.106;10.996;2023-05-07T09:25:09;98857.41;;;17.70;57.04
77381;BME280;66439;50.106;10.996;2023-05-07T09:27:20;98859.64;;;17.77;57.04
77381;BME280;66439;50.106;10.996;2023-05-07T09:29:24;98862.56;;;17.85;56.86
77381;BME280;66439;50.106;10.996;2023-05-07T09:31:27;98862.16;;;17.90;56.49
77381;BME280;66439;50.106;10.996;2023-05-07T09:33:30;98862.48;;;17.97;56.09
77381;BME280;66439;50.106;10.996;2023-05-07T09:35:34;98860.03;;;18.02;55.52
77381;BME280;66439;50.106;10.996;2023-05-07T09:37:41;98864.37;;;18.06;55.45
77381;BME280;66439;50.106;10.996;2023-05-07T09:39:46;98859.90;;;18.12;55.28
77381;BME280;66439;50.106;10.996;2023-05-07T09:41:51;98859.66;;;18.17;55.07
77381;BME280;66439;50.106;10.996;2023-05-07T09:44:06;98856.45;;;18.22;55.05
77381;BME280;66439;50.106;10.996;2023-05-07T09:46:14;98863.65;;;18.30;55.08
77381;BME280;66439;50.106;10.996;2023-05-07T09:48:25;98860.19;;;18.37;54.80
77381;BME280;66439;50.106;10.996;2023-05-07T09:50:30;98864.94;;;18.44;54.45
77381;BME280;66439;50.106;10.996;2023-05-07T09:52:39;98863.08;;;18.47;53.97
77381;BME280;66439;50.106;10.996;2023-05-07T09:54:50;98863.20;;;18.55;53.80
77381;BME280;66439;50.106;10.996;2023-05-07T09:56:54;98863.55;;;18.62;53.62
77381;BME280;66439;50.106;10.996;2023-05-07T09:59:00;98859.17;;;18.69;53.53
77381;BME280;66439;50.106;10.996;2023-05-07T10:01:06;98857.69;;;18.77;53.04
77381;BME280;66439;50.106;10.996;2023-05-07T10:03:11;98853.82;;;18.83;52.66
77381;BME280;66439;50.106;10.996;2023-05-07T10:05:25;98851.00;;;18.91;52.89
77381;BME280;66439;50.106;10.996;2023-05-07T10:07:29;98850.26;;;18.99;52.74
77381;BME280;66439;50.106;10.996;2023-05-07T10:09:38;98847.25;;;19.07;52.76
77381;BME280;66439;50.106;10.996;2023-05-07T10:11:51;98842.79;;;19.15;52.65
77381;BME280;66439;50.106;10.996;2023-05-07T10:13:56;98841.33;;;19.22;52.70
77381;BME280;66439;50.106;10.996;2023-05-07T10:16:19;98844.88;;;19.28;52.37
77381;BME280;66439;50.106;10.996;2023-05-07T10:18:24;98842.41;;;19.32;52.13
77381;BME280;66439;50.106;10.996;2023-05-07T10:20:38;98843.09;;;19.38;51.66
77381;BME280;66439;50.106;10.996;2023-05-07T10:22:45;98845.80;;;19.39;51.81
77381;BME280;66439;50.106;10.996;2023-05-07T10:24:52;98844.59;;;19.45;51.97
77381;BME280;66439;50.106;10.996;2023-05-07T10:26:59;98839.84;;;19.50;51.71
77381;BME280;66439;50.106;10.996;2023-05-07T10:29:13;98840.55;;;19.58;51.72
77381;BME280;66439;50.106;10.996;2023-05-07T10:34:24;98838.75;;;19.74;50.65
77381;BME280;66439;50.106;10.996;2023-05-07T10:36:35;98836.53;;;19.79;50.48
77381;BME280;66439;50.106;10.996;2023-05-07T10:38:42;98839.36;;;19.83;50.92
77381;BME280;66439;50.106;10.996;2023-05-07T10:40:46;98832.42;;;19.89;50.40
77381;BME280;66439;50.106;10.996;2023-05-07T10:42:58;98833.92;;;19.95;50.19
77381;BME280;66439;50.106;10.996;2023-05-07T10:45:14;98831.95;;;19.99;50.32
77381;BME280;66439;50.106;10.996;2023-05-07T10:48:08;98827.58;;;20.02;50.09
77381;BME280;66439;50.106;10.996;2023-05-07T10:50:32;98825.65;;;20.05;49.91
77381;BME280;66439;50.106;10.996;2023-05-07T10:52:37;98824.85;;;20.07;49.84
77381;BME280;66439;50.106;10.996;2023-05-07T10:59:39;98826.02;;;20.07;48.93
77381;BME280;66439;50.106;10.996;2023-05-07T11:01:58;98828.95;;;20.08;48.76
77381;BME280;66439;50.106;10.996;2023-05-07T11:04:14;98823.87;;;20.08;48.50
77381;BME280;66439;50.106;10.996;2023-05-07T11:06:39;98823.88;;;20.08;48.33
77381;BME280;66439;50.106;10.996;2023-05-07T11:08:57;98821.05;;;20.05;48.03
77381;BME280;66439;50.106;10.996;2023-05-07T11:11:59;98821.11;;;20.03;48.56
77381;BME280;66439;50.106;10.996;2023-05-07T11:14:08;98816.63;;;20.02;48.79
77381;BME280;66439;50.106;10.996;2023-05-07T11:16:24;98819.10;;;20.01;48.92
77381;BME280;66439;50.106;10.996;2023-05-07T11:18:49;98819.83;;;20.03;48.77
77381;BME280;66439;50.106;10.996;2023-05-07T11:21:06;98818.66;;;20.07;48.50
77381;BME280;66439;50.106;10.996;2023-05-07T11:25:42;98816.29;;;20.15;48.26
77381;BME280;66439;50.106;10.996;2023-05-07T11:27:51;98816.89;;;20.16;47.99
77381;BME280;66439;50.106;10.996;2023-05-07T11:29:56;98817.25;;;20.15;47.42